Time;durP1;ratioP1;P1;durP2;ratioP2;P2;SDS_P1;SDS_P2;PMS_P1;PMS_P2;Temp;Humidity;BMP_temperature;BMP_pressure;BME280_temperature;BME280_humidity;BME280_pressure;Samples;Min_cycle;Max_cycle;Signal;HPM_P1;HPM_P2
2023/07/24 00:02:04;;;;;;;3.40;2.90;;;23.70;76.70;;;;;;5012361;28;20807;-69
2023/07/24 00:04:33;;;;;;;3.57;3.07;;;23.70;76.70;;;;;;4978960;28;20909;-69
2023/07/24 00:07:00;;;;;;;3.47;2.53;;;23.70;76.50;;;;;;5022511;28;20856;-69
2023/07/24 00:09:26;;;;;;;3.20;2.90;;;23.70;76.90;;;;;;5014364;28;20467;-69
2023/07/24 00:11:54;;;;;;;3.43;3.23;;;23.70;76.90;;;;;;5014161;28;20473;-68
2023/07/24 00:14:24;;;;;;;3.50;3.20;;;23.70;76.90;;;;;;4997383;28;20521;-69
2023/07/24 00:16:50;;;;;;;3.23;2.90;;;23.70;76.70;;;;;;5004463;28;20451;-68
2023/07/24 00:19:16;;;;;;;3.07;2.87;;;23.70;76.60;;;;;;4977526;28;20444;-69
2023/07/24 00:21:46;;;;;;;3.87;2.97;;;23.70;76.50;;;;;;5011652;28;20459;-69
2023/07/24 00:24:17;;;;;;;2.57;2.40;;;23.70;76.50;;;;;;5011739;28;20507;-69
2023/07/24 00:26:43;;;;;;;4.27;3.10;;;23.70;76.80;;;;;;5002431;28;20430;-69
2023/07/24 00:29:09;;;;;;;3.80;3.50;;;23.70;76.80;;;;;;5030635;28;20450;-68
2023/07/24 00:31:37;;;;;;;2.50;2.40;;;23.70;76.90;;;;;;4978467;28;20276;-69
2023/07/24 00:34:03;;;;;;;3.20;3.00;;;23.70;76.60;;;;;;4977713;28;20216;-69
2023/07/24 00:36:29;;;;;;;3.20;3.00;;;23.70;76.80;;;;;;4981221;28;20444;-69
2023/07/24 00:38:55;;;;;;;3.33;3.13;;;23.70;76.70;;;;;;4994105;28;20268;-69
2023/07/24 00:41:24;;;;;;;4.00;2.70;;;23.70;76.70;;;;;;5011913;28;20435;-69
2023/07/24 00:43:52;;;;;;;3.53;2.97;;;23.70;76.90;;;;;;5029930;28;20459;-68
2023/07/24 00:46:18;;;;;;;3.63;3.33;;;23.60;76.70;;;;;;5008988;28;20436;-69
2023/07/24 00:48:44;;;;;;;3.60;3.30;;;23.60;76.80;;;;;;4961562;28;20452;-69
2023/07/24 00:51:18;;;;;;;3.30;3.07;;;23.60;76.70;;;;;;4994192;28;20436;-68
2023/07/24 00:53:47;;;;;;;3.60;2.90;;;23.60;76.70;;;;;;4993485;28;20473;-69
2023/07/24 00:56:18;;;;;;;3.00;2.80;;;23.60;76.80;;;;;;5010091;28;20428;-69
2023/07/24 00:58:46;;;;;;;3.33;3.03;;;23.60;76.90;;;;;;4977460;28;20432;-69
2023/07/24 01:01:17;;;;;;;3.30;3.10;;;23.60;76.90;;;;;;5016154;28;20901;-69
2023/07/24 01:03:44;;;;;;;3.53;3.30;;;23.60;76.90;;;;;;4996995;28;20432;-69
2023/07/24 01:06:10;;;;;;;3.67;2.87;;;23.60;76.90;;;;;;4998884;28;20420;-69
2023/07/24 01:08:37;;;;;;;3.07;2.87;;;23.60;77.00;;;;;;5029979;28;20799;-69
2023/07/24 01:11:28;;;;;;;3.63;2.77;;;23.60;76.90;;;;;;4992581;28;20455;-69
2023/07/24 01:14:24;;;;;;;3.10;2.90;;;23.50;76.90;;;;;;4993146;28;20460;-69
2023/07/24 01:16:56;;;;;;;3.30;3.10;;;23.50;77.00;;;;;;5001809;28;20446;-69
2023/07/24 01:19:31;;;;;;;3.40;3.20;;;23.50;77.00;;;;;;5013295;28;20453;-69
2023/07/24 01:22:29;;;;;;;3.57;3.37;;;23.50;77.10;;;;;;5012962;28;20410;-69
2023/07/24 01:25:11;;;;;;;3.13;2.93;;;23.50;77.10;;;;;;4971543;28;20978;-69
2023/07/24 01:27:43;;;;;;;3.80;3.27;;;23.50;77.10;;;;;;5019952;28;20419;-69
2023/07/24 01:30:17;;;;;;;3.53;3.23;;;23.50;77.20;;;;;;5013075;28;20463;-69
2023/07/24 01:32:46;;;;;;;3.37;3.10;;;23.50;77.30;;;;;;5013006;28;20962;-69
2023/07/24 01:35:12;;;;;;;3.10;2.80;;;23.50;77.30;;;;;;5028525;28;20463;-68
2023/07/24 01:37:40;;;;;;;2.63;2.43;;;23.50;77.30;;;;;;5030342;28;20411;-69
2023/07/24 01:40:13;;;;;;;4.90;3.57;;;23.50;77.40;;;;;;4996696;28;20825;-69
2023/07/24 01:42:42;;;;;;;3.10;2.90;;;23.50;77.50;;;;;;5029962;28;20478;-69
2023/07/24 01:45:09;;;;;;;3.07;2.87;;;23.50;77.40;;;;;;4995561;28;20439;-69
2023/07/24 01:47:34;;;;;;;3.30;3.10;;;23.40;77.50;;;;;;4997991;28;20454;-69
2023/07/24 01:50:00;;;;;;;3.30;3.00;;;23.50;77.70;;;;;;4992641;28;20440;-69
2023/07/24 01:52:26;;;;;;;3.50;3.30;;;23.40;77.50;;;;;;4992732;28;20965;-69
2023/07/24 01:54:52;;;;;;;3.13;2.93;;;23.40;77.60;;;;;;4978793;28;20460;-69
2023/07/24 01:57:21;;;;;;;3.80;3.40;;;23.40;77.60;;;;;;4993036;28;20459;-69
2023/07/24 01:59:51;;;;;;;3.73;3.43;;;23.40;77.60;;;;;;5008906;28;20546;-69
2023/07/24 02:02:20;;;;;;;3.40;3.17;;;23.40;77.50;;;;;;5012639;28;20423;-69
2023/07/24 02:04:48;;;;;;;3.17;2.97;;;23.40;77.50;;;;;;5027588;28;20455;-69
2023/07/24 02:07:14;;;;;;;3.80;3.40;;;23.40;77.60;;;;;;5012467;28;20427;-69
2023/07/24 02:09:40;;;;;;;3.57;3.30;;;23.40;77.60;;;;;;5012441;28;20878;-69
2023/07/24 02:12:09;;;;;;;3.40;3.20;;;23.40;77.60;;;;;;5010111;28;20437;-69
2023/07/24 02:14:35;;;;;;;3.37;3.13;;;23.40;77.50;;;;;;4976020;28;20463;-69
2023/07/24 02:17:03;;;;;;;3.70;3.40;;;23.40;77.60;;;;;;4981508;28;20443;-69
2023/07/24 02:19:30;;;;;;;3.60;3.30;;;23.40;77.50;;;;;;4998919;28;20436;-68
2023/07/24 02:21:56;;;;;;;4.50;3.60;;;23.40;77.60;;;;;;4976047;28;20713;-69
2023/07/24 02:24:24;;;;;;;3.57;3.27;;;23.40;77.60;;;;;;5010042;28;20956;-68
2023/07/24 02:26:53;;;;;;;3.20;2.80;;;23.30;77.60;;;;;;4992246;28;20431;-69
2023/07/24 02:29:19;;;;;;;3.87;3.57;;;23.30;77.70;;;;;;5009599;28;20193;-69
2023/07/24 02:31:45;;;;;;;3.87;3.57;;;23.30;77.80;;;;;;4976172;28;20461;-69
2023/07/24 02:34:13;;;;;;;3.03;2.83;;;23.30;77.60;;;;;;4991803;28;20472;-69
2023/07/24 02:36:41;;;;;;;3.90;3.60;;;23.30;77.80;;;;;;5021866;28;20949;-69
2023/07/24 02:39:11;;;;;;;3.90;3.60;;;23.30;77.80;;;;;;5011535;28;20874;-69
2023/07/24 02:41:36;;;;;;;3.90;3.60;;;23.30;77.70;;;;;;4995981;28;20431;-69
2023/07/24 02:44:03;;;;;;;3.37;3.10;;;23.30;77.90;;;;;;5029155;28;20427;-69
2023/07/24 02:46:32;;;;;;;3.20;3.00;;;23.30;77.90;;;;;;4993966;28;20436;-69
2023/07/24 02:49:01;;;;;;;3.37;3.07;;;23.30;77.90;;;;;;5004526;28;20817;-69
2023/07/24 02:51:29;;;;;;;3.73;3.47;;;23.30;77.80;;;;;;5008751;28;20482;-69
2023/07/24 02:54:00;;;;;;;4.00;3.60;;;23.30;78.00;;;;;;5012317;28;20711;-69
2023/07/24 02:56:26;;;;;;;4.43;3.30;;;23.30;78.20;;;;;;5029271;28;20977;-69
2023/07/24 02:58:54;;;;;;;3.60;3.30;;;23.30;78.10;;;;;;5015436;28;20443;-68
2023/07/24 03:01:22;;;;;;;4.63;3.77;;;23.30;78.10;;;;;;5016203;28;20423;-69
2023/07/24 03:03:49;;;;;;;4.30;4.00;;;23.30;78.10;;;;;;5032530;28;20945;-69
2023/07/24 03:06:17;;;;;;;3.57;3.30;;;23.30;78.10;;;;;;5012762;28;20443;-69
2023/07/24 03:08:46;;;;;;;4.03;3.70;;;23.30;78.90;;;;;;5032905;28;20527;-68
2023/07/24 03:11:14;;;;;;;4.67;4.03;;;23.20;78.20;;;;;;5030985;28;20512;-69
2023/07/24 03:13:41;;;;;;;3.90;3.60;;;23.20;78.20;;;;;;4995054;28;20460;-69
2023/07/24 03:16:06;;;;;;;3.67;3.37;;;23.20;78.30;;;;;;5025783;28;20425;-69
2023/07/24 03:18:32;;;;;;;3.63;3.33;;;23.30;78.40;;;;;;5014498;28;20431;-70
2023/07/24 03:21:06;;;;;;;4.50;4.10;;;23.20;78.40;;;;;;5015337;28;20427;-69
2023/07/24 03:23:34;;;;;;;4.07;3.77;;;23.20;78.50;;;;;;5002468;28;20426;-69
2023/07/24 03:26:02;;;;;;;5.70;3.80;;;23.20;78.60;;;;;;5015151;28;20792;-69
2023/07/24 03:28:31;;;;;;;4.10;3.80;;;23.20;78.80;;;;;;4998112;28;21005;-69
2023/07/24 03:30:57;;;;;;;4.20;3.80;;;23.20;78.80;;;;;;5007041;28;20420;-69
2023/07/24 03:33:25;;;;;;;3.73;3.43;;;23.20;78.70;;;;;;4995059;28;20456;-69
2023/07/24 03:35:50;;;;;;;4.20;3.80;;;23.20;78.80;;;;;;5012902;28;20776;-69
2023/07/24 03:38:22;;;;;;;3.90;3.60;;;23.20;78.80;;;;;;4996188;28;20486;-69
2023/07/24 03:40:57;;;;;;;4.60;4.20;;;23.20;78.80;;;;;;4983270;28;20419;-69
2023/07/24 03:43:25;;;;;;;4.93;3.83;;;23.20;78.80;;;;;;5030938;28;20534;-69
2023/07/24 03:45:56;;;;;;;4.23;3.87;;;23.20;78.80;;;;;;5031093;28;20410;-69
2023/07/24 03:48:31;;;;;;;4.10;3.80;;;23.10;78.80;;;;;;4976210;28;20499;-69
2023/07/24 03:51:02;;;;;;;4.37;4.07;;;23.10;78.70;;;;;;5001216;28;20427;-69
2023/07/24 03:53:30;;;;;;;4.17;3.87;;;23.10;78.80;;;;;;4995081;28;20470;-68
2023/07/24 03:55:56;;;;;;;4.40;4.00;;;23.10;78.80;;;;;;5012370;28;20432;-69
2023/07/24 03:58:27;;;;;;;4.50;4.10;;;23.10;78.80;;;;;;4994377;28;20443;-69
2023/07/24 04:00:53;;;;;;;3.90;3.60;;;23.10;78.80;;;;;;5012203;28;20496;-69
2023/07/24 04:03:21;;;;;;;4.27;3.97;;;23.10;78.80;;;;;;4993516;28;20511;-69
2023/07/24 04:05:51;;;;;;;7.33;4.40;;;23.10;78.80;;;;;;5010347;28;21024;-69
2023/07/24 04:08:17;;;;;;;4.40;4.10;;;23.10;78.90;;;;;;5029356;28;20985;-69
2023/07/24 04:10:45;;;;;;;4.67;4.27;;;23.10;78.90;;;;;;5006419;28;20424;-69
2023/07/24 04:13:11;;;;;;;4.77;4.40;;;23.10;78.90;;;;;;5007766;28;20193;-68
2023/07/24 04:15:39;;;;;;;5.57;5.00;;;23.10;78.90;;;;;;4990172;28;20436;-69
2023/07/24 04:18:05;;;;;;;4.40;4.10;;;23.10;79.10;;;;;;5008468;28;20451;-69
2023/07/24 04:20:36;;;;;;;5.90;5.40;;;23.10;79.00;;;;;;5030773;28;20407;-69
2023/07/24 04:23:03;;;;;;;4.93;4.53;;;23.10;79.00;;;;;;5005342;28;20440;-69
2023/07/24 04:25:32;;;;;;;4.60;4.20;;;23.10;78.90;;;;;;4993743;28;20436;-69
2023/07/24 04:28:03;;;;;;;4.60;4.20;;;23.10;79.80;;;;;;5026424;28;20474;-69
2023/07/24 04:30:32;;;;;;;4.60;4.27;;;23.10;79.10;;;;;;5026019;28;20944;-69
2023/07/24 04:33:03;;;;;;;5.57;5.07;;;23.10;79.20;;;;;;4993751;28;20423;-69
2023/07/24 04:35:29;;;;;;;4.40;4.10;;;23.10;79.30;;;;;;4973724;28;21099;-69
2023/07/24 04:37:57;;;;;;;5.00;4.60;;;23.00;79.30;;;;;;5020801;28;20539;-69
2023/07/24 04:40:28;;;;;;;5.63;5.13;;;23.00;79.30;;;;;;5013081;28;20446;-68
2023/07/24 04:42:54;;;;;;;4.27;3.97;;;23.10;79.50;;;;;;5030779;28;20416;-68
2023/07/24 04:45:21;;;;;;;4.60;4.30;;;23.10;79.60;;;;;;5012904;28;20473;-68
2023/07/24 04:47:50;;;;;;;4.83;4.17;;;23.00;79.60;;;;;;4997565;28;20245;-68
2023/07/24 04:50:18;;;;;;;4.40;4.10;;;23.00;79.80;;;;;;5011300;28;20530;-67
2023/07/24 04:52:46;;;;;;;5.33;4.63;;;23.00;80.00;;;;;;4993575;28;20438;-67
2023/07/24 04:55:14;;;;;;;5.00;4.50;;;23.00;80.00;;;;;;5010956;28;20460;-68
2023/07/24 04:57:40;;;;;;;7.50;5.10;;;23.00;80.90;;;;;;4993745;28;20444;-68
2023/07/24 05:00:09;;;;;;;5.40;4.83;;;23.00;80.10;;;;;;4994055;28;20498;-68
2023/07/24 05:02:35;;;;;;;4.70;4.37;;;23.00;80.10;;;;;;5011457;28;20788;-68
2023/07/24 05:05:01;;;;;;;6.77;5.00;;;23.00;80.20;;;;;;5011381;28;20549;-69
2023/07/24 05:07:27;;;;;;;4.40;4.10;;;23.00;80.20;;;;;;4994051;28;20428;-69
2023/07/24 05:10:01;;;;;;;4.80;4.40;;;23.00;80.30;;;;;;4993693;28;20836;-68
2023/07/24 05:12:30;;;;;;;5.20;4.70;;;23.00;80.50;;;;;;4994069;28;20930;-68
2023/07/24 05:14:55;;;;;;;5.00;4.50;;;23.00;80.70;;;;;;4993336;28;20522;-68
2023/07/24 05:17:24;;;;;;;4.83;4.40;;;22.90;80.80;;;;;;4994474;28;20289;-69
2023/07/24 05:19:50;;;;;;;4.90;4.40;;;22.90;81.00;;;;;;4993882;28;20531;-68
2023/07/24 05:22:16;;;;;;;5.13;4.73;;;22.90;81.00;;;;;;4977931;28;20420;-69
2023/07/24 05:24:42;;;;;;;6.37;4.67;;;22.90;81.10;;;;;;4994278;28;20181;-68
2023/07/24 05:27:08;;;;;;;5.37;4.83;;;22.90;81.10;;;;;;4993254;28;20420;-68
2023/07/24 05:29:34;;;;;;;5.57;5.07;;;22.90;81.10;;;;;;5010240;28;20867;-68
2023/07/24 05:32:05;;;;;;;6.20;4.60;;;22.90;81.00;;;;;;4993173;28;20420;-69
2023/07/24 05:34:31;;;;;;;6.90;6.20;;;22.90;81.20;;;;;;4992760;28;20551;-67
2023/07/24 05:37:02;;;;;;;5.23;4.77;;;22.90;81.30;;;;;;5064166;23;20495;-70
2023/07/24 05:39:30;;;;;;;5.47;4.93;;;22.90;81.50;;;;;;5018412;28;20440;-71
2023/07/24 05:41:56;;;;;;;5.20;4.80;;;22.90;81.80;;;;;;4992824;28;21048;-72
2023/07/24 05:44:27;;;;;;;5.40;4.90;;;22.90;81.80;;;;;;5010432;28;20917;-72
2023/07/24 05:46:53;;;;;;;5.13;4.73;;;22.90;81.90;;;;;;4993059;28;20485;-71
2023/07/24 05:49:19;;;;;;;5.13;4.70;;;22.90;81.90;;;;;;5010144;28;20431;-72
2023/07/24 05:51:45;;;;;;;6.00;5.37;;;22.90;81.90;;;;;;4992629;28;20216;-72
2023/07/24 05:54:13;;;;;;;5.17;4.67;;;22.90;82.00;;;;;;5009837;28;20452;-70
2023/07/24 05:56:39;;;;;;;5.80;5.30;;;22.90;81.90;;;;;;5019280;28;20801;-71
2023/07/24 05:59:05;;;;;;;6.00;5.03;;;22.90;81.80;;;;;;5029398;28;20438;-72
2023/07/24 06:01:33;;;;;;;5.10;4.60;;;22.90;81.80;;;;;;5029859;28;20772;-70
2023/07/24 06:04:02;;;;;;;4.73;4.33;;;22.90;81.70;;;;;;5044426;28;20890;-73
2023/07/24 06:06:28;;;;;;;5.80;4.70;;;22.90;81.60;;;;;;5028872;28;20435;-71
2023/07/24 06:08:56;;;;;;;4.93;4.53;;;22.90;81.70;;;;;;5028447;28;20752;-72
2023/07/24 06:11:22;;;;;;;5.30;4.80;;;22.80;81.60;;;;;;5010048;28;20176;-71
2023/07/24 06:13:48;;;;;;;4.90;4.50;;;22.80;81.60;;;;;;4992289;28;20443;-71
2023/07/24 06:16:14;;;;;;;5.13;4.63;;;22.80;81.70;;;;;;4976301;28;20489;-73
2023/07/24 06:18:43;;;;;;;4.67;4.27;;;22.90;81.70;;;;;;4992578;28;20867;-72
2023/07/24 06:21:09;;;;;;;5.83;5.10;;;22.80;81.70;;;;;;5008946;28;20802;-72
2023/07/24 06:23:37;;;;;;;4.33;3.93;;;22.80;81.70;;;;;;5025882;28;20523;-72
2023/07/24 06:26:08;;;;;;;7.50;4.80;;;22.90;81.90;;;;;;5006555;28;20507;-72
2023/07/24 06:28:38;;;;;;;5.23;4.73;;;22.80;81.90;;;;;;4976583;28;20448;-72
2023/07/24 06:31:04;;;;;;;5.03;4.63;;;22.80;82.10;;;;;;5022850;28;20835;-72
2023/07/24 06:33:30;;;;;;;5.20;4.70;;;22.80;82.60;;;;;;5014605;28;20480;-72
2023/07/24 06:35:56;;;;;;;5.47;4.63;;;22.80;82.60;;;;;;4975849;28;20849;-72
2023/07/24 06:38:22;;;;;;;4.80;4.43;;;22.80;82.40;;;;;;5023335;28;20288;-73
2023/07/24 06:40:50;;;;;;;5.10;4.60;;;22.80;82.60;;;;;;4994370;28;20446;-74
2023/07/24 06:43:17;;;;;;;6.13;4.90;;;22.80;82.70;;;;;;4990607;28;20423;-73
2023/07/24 06:45:45;;;;;;;5.53;5.03;;;22.80;83.00;;;;;;5008160;28;20425;-73
2023/07/24 06:48:11;;;;;;;6.23;4.93;;;22.80;83.40;;;;;;4959782;28;20429;-73
2023/07/24 06:50:40;;;;;;;5.10;4.60;;;22.80;83.80;;;;;;4960824;28;20472;-74
2023/07/24 06:53:08;;;;;;;4.60;4.20;;;22.80;84.00;;;;;;4985959;28;20418;-73
2023/07/24 06:55:34;;;;;;;5.60;4.50;;;22.80;83.90;;;;;;5007610;28;20789;-73
2023/07/24 06:58:00;;;;;;;5.60;5.13;;;22.80;84.20;;;;;;4992040;28;20203;-73
2023/07/24 07:00:30;;;;;;;8.30;4.80;;;22.80;84.20;;;;;;4983561;28;20440;-73
2023/07/24 07:02:56;;;;;;;5.37;4.80;;;22.80;84.60;;;;;;5019329;28;20465;-73
2023/07/24 07:05:22;;;;;;;6.07;4.73;;;22.80;85.00;;;;;;4975556;28;20460;-73
2023/07/24 07:07:51;;;;;;;5.17;4.67;;;22.80;84.70;;;;;;5018629;28;20500;-73
2023/07/24 07:10:17;;;;;;;5.40;4.70;;;22.80;84.80;;;;;;5012817;28;20460;-73
2023/07/24 07:12:43;;;;;;;5.17;4.67;;;22.80;84.70;;;;;;4994341;28;20439;-74
2023/07/24 07:15:09;;;;;;;4.87;4.47;;;22.80;84.50;;;;;;5009397;28;20470;-73
2023/07/24 07:17:35;;;;;;;5.00;4.60;;;22.80;84.70;;;;;;4991404;28;20840;-74
2023/07/24 07:20:01;;;;;;;5.47;4.97;;;22.80;84.70;;;;;;4976607;28;20525;-73
2023/07/24 07:22:30;;;;;;;5.37;4.90;;;22.80;84.60;;;;;;5011427;28;20540;-74
2023/07/24 07:25:00;;;;;;;5.40;4.90;;;22.80;84.80;;;;;;4994025;28;20439;-73
2023/07/24 07:27:26;;;;;;;5.07;4.57;;;22.80;84.60;;;;;;5029320;28;20450;-73
2023/07/24 07:29:52;;;;;;;5.17;4.67;;;22.80;84.50;;;;;;4993238;28;20439;-73
2023/07/24 07:32:18;;;;;;;5.27;4.73;;;22.80;84.60;;;;;;5003230;28;20437;-74
2023/07/24 07:34:44;;;;;;;4.83;4.43;;;22.80;84.50;;;;;;5004035;28;20551;-73
2023/07/24 07:37:12;;;;;;;5.10;4.63;;;22.80;84.70;;;;;;4999522;28;20481;-73
2023/07/24 07:39:42;;;;;;;5.20;4.47;;;22.80;84.60;;;;;;5032014;28;20431;-73
2023/07/24 07:42:08;;;;;;;4.60;4.13;;;22.80;84.60;;;;;;5013477;28;20416;-73
2023/07/24 07:44:34;;;;;;;6.17;4.40;;;22.80;84.80;;;;;;5011936;28;20930;-73
2023/07/24 07:47:03;;;;;;;4.90;4.50;;;22.80;84.70;;;;;;5012137;28;20475;-73
2023/07/24 07:49:29;;;;;;;5.30;4.90;;;22.80;85.30;;;;;;5012011;28;20880;-74
2023/07/24 07:51:58;;;;;;;4.90;4.50;;;22.80;85.10;;;;;;5008986;28;20439;-72
2023/07/24 07:54:28;;;;;;;4.50;4.10;;;22.80;85.10;;;;;;4994152;28;20575;-73
2023/07/24 07:56:54;;;;;;;5.20;4.80;;;22.80;85.10;;;;;;5012501;28;20428;-73
2023/07/24 07:59:23;;;;;;;4.77;4.37;;;22.80;85.00;;;;;;5011720;28;20522;-73
2023/07/24 08:01:48;;;;;;;5.47;4.83;;;22.80;84.90;;;;;;5025948;28;20499;-73
2023/07/24 08:04:15;;;;;;;5.20;4.70;;;22.80;85.10;;;;;;4978930;28;20441;-73
2023/07/24 08:06:41;;;;;;;4.70;4.30;;;22.80;85.20;;;;;;5015791;28;20455;-74
2023/07/24 08:09:09;;;;;;;4.50;4.10;;;22.80;85.10;;;;;;4994198;28;20467;-73
2023/07/24 08:11:38;;;;;;;8.63;4.40;;;22.80;85.20;;;;;;5006133;28;20435;-73
2023/07/24 08:14:05;;;;;;;4.47;4.03;;;22.80;85.30;;;;;;4986551;28;20805;-73
2023/07/24 08:16:35;;;;;;;5.03;4.50;;;22.80;85.50;;;;;;4978353;28;20431;-73
2023/07/24 08:19:01;;;;;;;4.53;4.17;;;22.80;85.30;;;;;;4993864;28;20455;-74
2023/07/24 08:21:30;;;;;;;4.30;3.90;;;22.80;85.20;;;;;;5020267;28;20454;-73
2023/07/24 08:23:57;;;;;;;5.00;4.43;;;22.80;85.30;;;;;;5030613;28;20773;-73
2023/07/24 08:26:24;;;;;;;4.50;4.10;;;22.80;85.30;;;;;;5029176;28;21326;-73
2023/07/24 08:28:50;;;;;;;4.50;4.10;;;22.80;85.40;;;;;;5029755;28;20984;-73
2023/07/24 08:31:16;;;;;;;4.03;3.60;;;22.80;85.50;;;;;;5020899;28;20526;-73
2023/07/24 08:33:42;;;;;;;7.90;4.40;;;22.80;85.50;;;;;;5006109;28;20466;-73
2023/07/24 08:36:16;;;;;;;4.70;4.30;;;22.80;85.30;;;;;;5028776;28;20493;-73
2023/07/24 08:38:42;;;;;;;5.03;3.90;;;22.80;85.10;;;;;;4993045;28;20216;-73
2023/07/24 08:41:10;;;;;;;4.17;3.77;;;22.80;85.20;;;;;;5000761;28;20429;-74
2023/07/24 08:43:39;;;;;;;5.00;3.83;;;22.80;86.30;;;;;;5030496;28;20431;-75
2023/07/24 08:46:08;;;;;;;4.53;4.13;;;22.80;85.70;;;;;;5013985;28;20536;-74
2023/07/24 08:48:43;;;;;;;4.63;4.00;;;22.80;85.80;;;;;;4993397;28;20455;-74
2023/07/24 08:51:16;;;;;;;5.23;4.70;;;22.90;85.80;;;;;;4984721;28;20538;-74
2023/07/24 08:53:43;;;;;;;4.73;4.23;;;22.80;85.80;;;;;;5015905;28;21108;-74
2023/07/24 08:56:12;;;;;;;4.93;4.53;;;22.80;85.90;;;;;;4993315;28;20402;-74
2023/07/24 08:58:39;;;;;;;4.07;3.67;;;22.80;86.00;;;;;;4977023;28;20492;-74
2023/07/24 09:01:08;;;;;;;3.97;3.60;;;22.80;86.10;;;;;;5017836;28;20477;-74
2023/07/24 09:03:34;;;;;;;6.03;4.33;;;22.90;86.20;;;;;;5028060;28;20447;-74
2023/07/24 09:06:01;;;;;;;5.20;4.67;;;22.80;86.10;;;;;;5019515;28;20442;-74
2023/07/24 09:08:41;;;;;;;3.80;3.50;;;22.80;86.40;;;;;;5006063;28;20757;-74
2023/07/24 09:11:14;;;;;;;5.27;4.20;;;22.90;86.20;;;;;;5005887;28;20471;-74
2023/07/24 09:13:46;;;;;;;4.30;3.90;;;22.90;86.40;;;;;;5005431;28;20478;-75
2023/07/24 09:16:25;;;;;;;5.00;4.60;;;22.90;86.10;;;;;;5028484;28;20494;-74
2023/07/24 09:18:57;;;;;;;4.43;4.13;;;22.90;86.40;;;;;;5045318;28;20788;-74
2023/07/24 09:21:30;;;;;;;4.60;4.20;;;22.90;86.20;;;;;;5005051;28;20451;-73
2023/07/24 09:23:57;;;;;;;4.20;3.80;;;22.90;86.10;;;;;;4996404;28;20491;-74
2023/07/24 09:26:23;;;;;;;3.97;3.63;;;22.90;85.80;;;;;;4994349;28;20416;-73
2023/07/24 09:28:57;;;;;;;4.67;4.13;;;22.90;85.80;;;;;;4981235;28;20553;-73
2023/07/24 09:31:35;;;;;;;3.70;3.40;;;22.90;85.80;;;;;;4966211;28;20840;-73
2023/07/24 09:34:02;;;;;;;4.60;4.20;;;22.90;85.60;;;;;;4976023;28;20658;-73
2023/07/24 09:36:38;;;;;;;3.80;3.50;;;22.90;85.50;;;;;;5003403;28;20456;-73
2023/07/24 09:39:06;;;;;;;3.70;3.40;;;22.90;85.40;;;;;;4992930;28;20921;-73
2023/07/24 09:41:32;;;;;;;4.20;3.90;;;22.90;85.30;;;;;;5033890;28;20422;-74
2023/07/24 09:43:58;;;;;;;3.60;3.30;;;22.90;85.30;;;;;;4997261;28;20420;-74
2023/07/24 09:46:28;;;;;;;3.80;3.50;;;22.90;85.40;;;;;;5028599;28;20413;-74
2023/07/24 09:48:58;;;;;;;4.10;3.70;;;22.90;85.30;;;;;;5007211;28;20459;-74
2023/07/24 09:51:25;;;;;;;3.40;3.20;;;22.90;85.20;;;;;;5021463;28;20428;-73
2023/07/24 09:54:14;;;;;;;3.93;3.53;;;22.90;85.00;;;;;;4995161;28;20452;-73
2023/07/24 09:56:41;;;;;;;3.77;3.47;;;22.90;85.30;;;;;;4977143;28;20876;-73
2023/07/24 09:59:10;;;;;;;4.67;3.50;;;22.90;85.30;;;;;;5009829;28;20440;-73
2023/07/24 10:01:39;;;;;;;4.10;3.80;;;22.90;85.20;;;;;;5021060;28;20537;-76
2023/07/24 10:04:07;;;;;;;4.17;3.77;;;22.90;85.50;;;;;;5007417;28;20426;-73
2023/07/24 10:06:33;;;;;;;3.37;2.97;;;23.00;85.30;;;;;;4993707;28;20824;-73
2023/07/24 10:09:00;;;;;;;3.97;3.67;;;22.90;85.20;;;;;;5026201;28;21057;-73
2023/07/24 10:11:33;;;;;;;3.73;3.20;;;22.90;85.70;;;;;;4996916;28;20555;-72
2023/07/24 10:14:00;;;;;;;4.43;3.83;;;22.90;85.20;;;;;;5007631;28;20460;-73
2023/07/24 10:16:26;;;;;;;3.97;3.67;;;22.90;85.40;;;;;;4994465;28;20836;-73
2023/07/24 10:18:54;;;;;;;3.57;3.27;;;22.90;85.60;;;;;;4985179;28;20829;-72
2023/07/24 10:21:28;;;;;;;4.00;3.70;;;22.90;85.40;;;;;;4992338;28;20895;-73
2023/07/24 10:24:00;;;;;;;4.77;3.73;;;23.00;85.70;;;;;;5028535;28;20522;-73
2023/07/24 10:26:30;;;;;;;4.30;3.90;;;23.00;85.60;;;;;;4991761;28;20420;-73
2023/07/24 10:28:57;;;;;;;3.70;3.40;;;23.00;85.50;;;;;;5006843;28;20475;-72
2023/07/24 10:31:28;;;;;;;4.20;3.90;;;23.00;85.50;;;;;;4988936;28;20434;-72
2023/07/24 10:33:55;;;;;;;4.47;3.80;;;23.00;85.60;;;;;;4991318;28;20471;-72
2023/07/24 10:36:24;;;;;;;4.43;4.03;;;23.00;85.70;;;;;;5022667;28;20439;-73
2023/07/24 10:38:56;;;;;;;4.83;4.00;;;23.00;85.30;;;;;;5019368;28;20443;-73
2023/07/24 10:41:34;;;;;;;4.20;3.90;;;23.00;85.30;;;;;;4994516;28;20454;-72
2023/07/24 10:44:00;;;;;;;4.13;3.80;;;23.00;85.20;;;;;;5027751;28;20871;-72
2023/07/24 10:46:36;;;;;;;4.67;4.27;;;23.00;85.10;;;;;;5027661;28;20483;-73
2023/07/24 10:49:03;;;;;;;4.53;4.13;;;23.00;85.10;;;;;;5022591;28;20451;-73
2023/07/24 10:51:32;;;;;;;4.00;3.70;;;23.00;84.90;;;;;;5010004;28;20431;-73
2023/07/24 10:54:02;;;;;;;4.10;3.80;;;23.00;84.90;;;;;;4982439;28;20555;-73
2023/07/24 10:56:28;;;;;;;4.43;3.97;;;23.00;85.00;;;;;;5008943;28;20463;-73
2023/07/24 10:59:03;;;;;;;4.77;4.37;;;23.00;84.90;;;;;;4999145;28;20446;-73
2023/07/24 11:01:30;;;;;;;4.83;4.43;;;23.00;84.70;;;;;;5028946;28;20407;-73
2023/07/24 11:04:00;;;;;;;4.07;3.73;;;23.00;84.90;;;;;;5005581;28;20569;-73
2023/07/24 11:06:27;;;;;;;6.50;4.37;;;23.00;85.00;;;;;;5016171;28;20989;-73
2023/07/24 11:08:56;;;;;;;4.53;4.23;;;23.00;85.10;;;;;;5010096;28;20451;-73
2023/07/24 11:11:27;;;;;;;5.20;4.20;;;23.00;85.40;;;;;;5027530;28;20935;-73
2023/07/24 11:13:53;;;;;;;4.50;3.97;;;23.00;85.30;;;;;;5030270;28;20466;-74
2023/07/24 11:16:22;;;;;;;4.47;4.17;;;23.00;85.50;;;;;;4998903;28;20502;-74
2023/07/24 11:18:49;;;;;;;4.30;3.93;;;23.10;85.50;;;;;;5010054;28;20529;-74
2023/07/24 11:21:16;;;;;;;3.93;3.63;;;23.10;85.20;;;;;;5030717;28;20415;-74
2023/07/24 11:23:53;;;;;;;4.33;3.97;;;23.10;85.00;;;;;;5014274;28;20496;-74
2023/07/24 11:26:27;;;;;;;4.20;3.80;;;23.10;84.90;;;;;;5009230;28;20464;-74
2023/07/24 11:28:56;;;;;;;4.53;4.13;;;23.10;84.70;;;;;;5009916;28;20463;-74
2023/07/24 11:31:22;;;;;;;4.47;4.17;;;23.10;84.80;;;;;;5004417;28;20428;-74
2023/07/24 11:33:52;;;;;;;4.83;3.80;;;23.10;84.60;;;;;;5009607;28;20463;-75
2023/07/24 11:36:21;;;;;;;7.00;4.20;;;23.10;85.10;;;;;;5021284;28;20901;-75
2023/07/24 11:38:48;;;;;;;6.23;4.00;;;23.10;85.90;;;;;;5037083;28;20453;-74
2023/07/24 11:41:17;;;;;;;5.17;4.47;;;23.10;85.90;;;;;;4980532;28;21053;-75
2023/07/24 11:43:48;;;;;;;9.57;4.73;;;23.10;85.50;;;;;;5023105;28;20592;-73
2023/07/24 11:46:24;;;;;;;7.90;4.23;;;23.10;85.40;;;;;;5010421;28;20439;-74
2023/07/24 11:48:53;;;;;;;4.00;3.60;;;23.10;85.40;;;;;;4988955;28;20462;-74
2023/07/24 11:51:21;;;;;;;7.30;3.83;;;23.10;85.40;;;;;;5009385;28;20448;-75
2023/07/24 11:53:49;;;;;;;7.37;4.00;;;23.10;85.20;;;;;;4977503;28;20506;-76
2023/07/24 11:56:18;;;;;;;4.43;4.00;;;23.10;85.20;;;;;;5001002;28;20518;-74
2023/07/24 11:58:45;;;;;;;4.00;3.60;;;23.10;85.30;;;;;;4975448;28;20561;-75
2023/07/24 12:01:13;;;;;;;6.70;3.97;;;23.00;85.30;;;;;;4997832;28;20431;-74
2023/07/24 12:03:41;;;;;;;6.17;3.53;;;23.10;85.30;;;;;;4997943;28;20478;-74
2023/07/24 12:06:15;;;;;;;4.23;3.67;;;23.00;85.00;;;;;;5020874;28;20436;-74
2023/07/24 12:08:44;;;;;;;9.83;3.63;;;23.00;84.90;;;;;;4986949;28;21084;-74
2023/07/24 12:11:19;;;;;;;4.17;3.77;;;23.00;85.00;;;;;;4996599;28;20438;-74
2023/07/24 12:13:47;;;;;;;3.77;3.20;;;23.00;84.80;;;;;;5013258;28;20454;-74
2023/07/24 12:16:16;;;;;;;4.10;3.73;;;23.00;85.00;;;;;;5030088;28;20415;-74
2023/07/24 12:18:42;;;;;;;5.40;4.40;;;23.00;84.60;;;;;;5030702;28;21192;-74
2023/07/24 12:21:08;;;;;;;3.83;3.57;;;23.00;84.90;;;;;;4979559;28;20425;-74
2023/07/24 12:23:39;;;;;;;15.43;4.20;;;23.00;85.00;;;;;;4977646;28;20308;-74
2023/07/24 12:26:05;;;;;;;4.30;3.67;;;23.00;84.70;;;;;;5009140;28;20884;-74
2023/07/24 12:28:33;;;;;;;5.50;4.27;;;23.00;84.60;;;;;;4979017;28;20577;-73
2023/07/24 12:31:05;;;;;;;3.40;3.20;;;23.00;84.60;;;;;;5004275;28;20581;-74
2023/07/24 12:33:31;;;;;;;3.97;3.60;;;23.00;84.30;;;;;;4994378;28;20545;-73
2023/07/24 12:35:59;;;;;;;3.30;3.00;;;23.00;84.40;;;;;;5021133;28;20482;-73
2023/07/24 12:38:28;;;;;;;3.73;3.13;;;23.00;84.40;;;;;;4999596;28;20469;-75
2023/07/24 12:40:57;;;;;;;5.33;3.50;;;23.00;84.60;;;;;;5028202;28;20450;-74
2023/07/24 12:43:23;;;;;;;4.30;3.97;;;23.00;84.40;;;;;;5010956;28;20427;-74
2023/07/24 12:45:51;;;;;;;4.07;3.60;;;23.00;84.50;;;;;;4990886;28;20462;-74
2023/07/24 12:48:20;;;;;;;4.27;3.87;;;23.00;84.50;;;;;;5000042;28;20207;-75
2023/07/24 12:50:45;;;;;;;3.77;3.47;;;23.00;84.50;;;;;;4995211;28;20425;-74
2023/07/24 12:53:11;;;;;;;3.93;3.00;;;23.00;84.60;;;;;;5010478;28;20758;-74
2023/07/24 12:55:37;;;;;;;3.47;3.17;;;23.00;85.40;;;;;;5005421;28;20333;-74